sensor_id;sensor_type;location;lat;lon;timestamp;P1;durP1;ratioP1;P2;durP2;ratioP2
32625;SDS011;19038;50.922;11.880;2022-10-16T00:01:49;2.87;;;1.50;;
32625;SDS011;19038;50.922;11.880;2022-10-16T00:06:49;1.50;;;1.40;;
32625;SDS011;19038;50.922;11.880;2022-10-16T00:11:49;1.73;;;1.63;;
32625;SDS011;19038;50.922;11.880;2022-10-16T00:16:49;1.20;;;1.20;;
32625;SDS011;19038;50.922;11.880;2022-10-16T00:21:49;2.10;;;1.57;;
32625;SDS011;19038;50.922;11.880;2022-10-16T00:26:50;2.30;;;1.90;;
32625;SDS011;19038;50.922;11.880;2022-10-16T00:31:49;1.70;;;1.60;;
32625;SDS011;19038;50.922;11.880;2022-10-16T00:36:49;2.00;;;1.80;;
32625;SDS011;19038;50.922;11.880;2022-10-16T00:41:50;3.83;;;1.90;;
32625;SDS011;19038;50.922;11.880;2022-10-16T00:46:49;1.57;;;1.47;;
32625;SDS011;19038;50.922;11.880;2022-10-16T00:51:50;1.50;;;1.40;;
32625;SDS011;19038;50.922;11.880;2022-10-16T00:56:50;1.40;;;1.30;;
32625;SDS011;19038;50.922;11.880;2022-10-16T01:01:49;1.30;;;1.20;;
32625;SDS011;19038;50.922;11.880;2022-10-16T01:16:55;1.97;;;1.77;;
32625;SDS011;19038;50.922;11.880;2022-10-16T01:21:49;1.90;;;1.50;;
32625;SDS011;19038;50.922;11.880;2022-10-16T01:31:52;2.43;;;1.50;;
32625;SDS011;19038;50.922;11.880;2022-10-16T01:36:51;2.80;;;1.90;;
32625;SDS011;19038;50.922;11.880;2022-10-16T01:41:52;2.00;;;1.80;;
32625;SDS011;19038;50.922;11.880;2022-10-16T01:46:50;2.37;;;1.70;;
32625;SDS011;19038;50.922;11.880;2022-10-16T01:51:50;1.83;;;1.73;;
32625;SDS011;19038;50.922;11.880;2022-10-16T01:56:49;1.57;;;1.47;;
32625;SDS011;19038;50.922;11.880;2022-10-16T02:01:50;1.50;;;1.40;;
32625;SDS011;19038;50.922;11.880;2022-10-16T02:06:49;1.50;;;1.40;;
32625;SDS011;19038;50.922;11.880;2022-10-16T02:11:50;1.63;;;1.10;;
32625;SDS011;19038;50.922;11.880;2022-10-16T02:16:50;1.00;;;1.00;;
32625;SDS011;19038;50.922;11.880;2022-10-16T02:21:51;1.30;;;1.10;;
32625;SDS011;19038;50.922;11.880;2022-10-16T02:26:52;1.20;;;1.10;;
32625;SDS011;19038;50.922;11.880;2022-10-16T02:31:50;1.27;;;1.00;;
32625;SDS011;19038;50.922;11.880;2022-10-16T02:36:50;1.83;;;1.60;;
32625;SDS011;19038;50.922;11.880;2022-10-16T02:41:49;2.93;;;2.60;;
32625;SDS011;19038;50.922;11.880;2022-10-16T02:46:49;5.47;;;4.80;;
32625;SDS011;19038;50.922;11.880;2022-10-16T02:51:50;9.60;;;7.70;;
32625;SDS011;19038;50.922;11.880;2022-10-16T02:56:50;7.13;;;5.70;;
32625;SDS011;19038;50.922;11.880;2022-10-16T03:01:50;13.53;;;8.30;;
32625;SDS011;19038;50.922;11.880;2022-10-16T03:06:50;9.30;;;6.50;;
32625;SDS011;19038;50.922;11.880;2022-10-16T03:11:50;10.13;;;8.30;;
32625;SDS011;19038;50.922;11.880;2022-10-16T03:16:50;10.60;;;8.90;;
32625;SDS011;19038;50.922;11.880;2022-10-16T03:21:50;9.73;;;6.50;;
32625;SDS011;19038;50.922;11.880;2022-10-16T03:26:50;4.77;;;4.20;;
32625;SDS011;19038;50.922;11.880;2022-10-16T03:31:50;6.43;;;5.67;;
32625;SDS011;19038;50.922;11.880;2022-10-16T03:36:50;6.97;;;5.10;;
32625;SDS011;19038;50.922;11.880;2022-10-16T03:41:50;5.37;;;3.83;;
32625;SDS011;19038;50.922;11.880;2022-10-16T03:46:50;5.77;;;3.53;;
32625;SDS011;19038;50.922;11.880;2022-10-16T03:51:50;2.50;;;2.30;;
32625;SDS011;19038;50.922;11.880;2022-10-16T03:56:50;3.77;;;3.47;;
32625;SDS011;19038;50.922;11.880;2022-10-16T04:01:50;2.07;;;1.90;;
32625;SDS011;19038;50.922;11.880;2022-10-16T04:06:50;2.90;;;2.60;;
32625;SDS011;19038;50.922;11.880;2022-10-16T04:11:50;2.60;;;2.40;;
32625;SDS011;19038;50.922;11.880;2022-10-16T04:16:50;5.53;;;2.50;;
32625;SDS011;19038;50.922;11.880;2022-10-16T04:21:50;3.23;;;2.23;;
32625;SDS011;19038;50.922;11.880;2022-10-16T04:26:50;4.73;;;2.43;;
32625;SDS011;19038;50.922;11.880;2022-10-16T04:31:50;3.33;;;2.43;;
32625;SDS011;19038;50.922;11.880;2022-10-16T04:36:50;2.70;;;2.50;;
32625;SDS011;19038;50.922;11.880;2022-10-16T04:41:50;2.20;;;2.00;;
32625;SDS011;19038;50.922;11.880;2022-10-16T04:46:50;2.80;;;2.43;;
32625;SDS011;19038;50.922;11.880;2022-10-16T04:51:50;2.63;;;2.43;;
32625;SDS011;19038;50.922;11.880;2022-10-16T04:56:50;3.73;;;3.30;;
32625;SDS011;19038;50.922;11.880;2022-10-16T05:01:50;3.33;;;3.03;;
32625;SDS011;19038;50.922;11.880;2022-10-16T05:06:50;2.83;;;2.50;;
32625;SDS011;19038;50.922;11.880;2022-10-16T05:11:50;2.47;;;2.33;;
32625;SDS011;19038;50.922;11.880;2022-10-16T05:16:50;3.67;;;2.43;;
32625;SDS011;19038;50.922;11.880;2022-10-16T05:21:50;2.87;;;2.67;;
32625;SDS011;19038;50.922;11.880;2022-10-16T05:26:50;3.37;;;3.07;;
32625;SDS011;19038;50.922;11.880;2022-10-16T05:31:51;3.53;;;3.10;;
32625;SDS011;19038;50.922;11.880;2022-10-16T05:36:50;3.40;;;3.10;;
32625;SDS011;19038;50.922;11.880;2022-10-16T05:41:50;3.03;;;2.67;;
32625;SDS011;19038;50.922;11.880;2022-10-16T05:46:50;3.10;;;2.80;;
32625;SDS011;19038;50.922;11.880;2022-10-16T05:51:50;2.57;;;2.10;;
32625;SDS011;19038;50.922;11.880;2022-10-16T05:56:50;2.27;;;2.07;;
32625;SDS011;19038;50.922;11.880;2022-10-16T06:01:50;3.20;;;2.03;;
32625;SDS011;19038;50.922;11.880;2022-10-16T06:06:50;3.30;;;3.10;;
32625;SDS011;19038;50.922;11.880;2022-10-16T06:11:50;4.00;;;3.60;;
32625;SDS011;19038;50.922;11.880;2022-10-16T06:16:50;12.03;;;10.10;;
32625;SDS011;19038;50.922;11.880;2022-10-16T06:21:50;7.23;;;6.53;;
32625;SDS011;19038;50.922;11.880;2022-10-16T06:26:50;6.73;;;6.13;;
32625;SDS011;19038;50.922;11.880;2022-10-16T06:31:50;4.43;;;4.10;;
32625;SDS011;19038;50.922;11.880;2022-10-16T06:36:50;3.83;;;3.53;;
32625;SDS011;19038;50.922;11.880;2022-10-16T06:41:50;2.50;;;2.30;;
32625;SDS011;19038;50.922;11.880;2022-10-16T06:46:50;2.27;;;2.07;;
32625;SDS011;19038;50.922;11.880;2022-10-16T06:51:50;2.90;;;2.20;;
32625;SDS011;19038;50.922;11.880;2022-10-16T06:56:50;5.47;;;3.70;;
32625;SDS011;19038;50.922;11.880;2022-10-16T07:01:50;1.83;;;1.63;;
32625;SDS011;19038;50.922;11.880;2022-10-16T07:06:50;2.33;;;2.13;;
32625;SDS011;19038;50.922;11.880;2022-10-16T07:11:50;1.63;;;1.53;;
32625;SDS011;19038;50.922;11.880;2022-10-16T07:16:50;1.10;;;1.10;;
32625;SDS011;19038;50.922;11.880;2022-10-16T07:21:50;2.50;;;1.17;;
32625;SDS011;19038;50.922;11.880;2022-10-16T07:26:50;1.00;;;1.00;;
32625;SDS011;19038;50.922;11.880;2022-10-16T07:31:50;1.70;;;1.17;;
32625;SDS011;19038;50.922;11.880;2022-10-16T07:36:50;1.87;;;1.60;;
32625;SDS011;19038;50.922;11.880;2022-10-16T07:41:50;1.73;;;1.63;;
32625;SDS011;19038;50.922;11.880;2022-10-16T07:46:50;1.50;;;1.40;;
32625;SDS011;19038;50.922;11.880;2022-10-16T07:51:50;2.60;;;2.37;;
32625;SDS011;19038;50.922;11.880;2022-10-16T07:56:50;3.30;;;3.00;;
32625;SDS011;19038;50.922;11.880;2022-10-16T08:01:50;1.83;;;1.73;;
32625;SDS011;19038;50.922;11.880;2022-10-16T08:12:14;6.10;;;5.60;;
32625;SDS011;19038;50.922;11.880;2022-10-16T08:17:15;2.80;;;2.50;;
32625;SDS011;19038;50.922;11.880;2022-10-16T08:22:15;2.77;;;2.57;;
32625;SDS011;19038;50.922;11.880;2022-10-16T08:27:14;2.83;;;2.63;;
32625;SDS011;19038;50.922;11.880;2022-10-16T08:32:14;3.03;;;2.73;;
32625;SDS011;19038;50.922;11.880;2022-10-16T08:37:14;2.80;;;2.60;;
32625;SDS011;19038;50.922;11.880;2022-10-16T08:42:20;3.00;;;2.00;;
32625;SDS011;19038;50.922;11.880;2022-10-16T08:47:18;2.50;;;2.17;;
32625;SDS011;19038;50.922;11.880;2022-10-16T08:52:14;3.00;;;2.27;;
32625;SDS011;19038;50.922;11.880;2022-10-16T08:57:19;2.60;;;2.40;;
32625;SDS011;19038;50.922;11.880;2022-10-16T09:12:17;3.67;;;2.47;;
32625;SDS011;19038;50.922;11.880;2022-10-16T09:17:20;3.10;;;2.43;;
32625;SDS011;19038;50.922;11.880;2022-10-16T09:22:15;2.30;;;2.20;;
32625;SDS011;19038;50.922;11.880;2022-10-16T09:27:15;2.23;;;1.77;;
32625;SDS011;19038;50.922;11.880;2022-10-16T09:32:16;2.20;;;2.00;;
32625;SDS011;19038;50.922;11.880;2022-10-16T09:37:16;2.37;;;2.10;;
32625;SDS011;19038;50.922;11.880;2022-10-16T09:42:16;2.60;;;2.40;;
32625;SDS011;19038;50.922;11.880;2022-10-16T09:47:16;4.80;;;4.10;;
32625;SDS011;19038;50.922;11.880;2022-10-16T09:52:14;5.37;;;4.77;;
32625;SDS011;19038;50.922;11.880;2022-10-16T09:57:14;2.97;;;2.60;;
32625;SDS011;19038;50.922;11.880;2022-10-16T10:02:15;3.40;;;3.03;;
32625;SDS011;19038;50.922;11.880;2022-10-16T10:07:17;3.33;;;3.00;;
32625;SDS011;19038;50.922;11.880;2022-10-16T10:17:18;2.20;;;2.10;;
32625;SDS011;19038;50.922;11.880;2022-10-16T10:22:19;3.60;;;2.77;;
32625;SDS011;19038;50.922;11.880;2022-10-16T10:27:15;2.80;;;2.60;;
32625;SDS011;19038;50.922;11.880;2022-10-16T10:32:18;10.10;;;8.83;;
32625;SDS011;19038;50.922;11.880;2022-10-16T10:42:51;4.03;;;3.63;;
32625;SDS011;19038;50.922;11.880;2022-10-16T10:47:48;2.10;;;2.00;;
32625;SDS011;19038;50.922;11.880;2022-10-16T10:52:50;2.37;;;2.10;;
32625;SDS011;19038;50.922;11.880;2022-10-16T11:12:49;3.50;;;3.20;;
32625;SDS011;19038;50.922;11.880;2022-10-16T11:17:48;2.13;;;1.93;;
32625;SDS011;19038;50.922;11.880;2022-10-16T11:22:49;2.77;;;2.20;;
32625;SDS011;19038;50.922;11.880;2022-10-16T11:32:53;2.13;;;2.03;;
32625;SDS011;19038;50.922;11.880;2022-10-16T11:37:46;2.73;;;2.50;;
32625;SDS011;19038;50.922;11.880;2022-10-16T11:42:49;2.47;;;2.27;;
32625;SDS011;19038;50.922;11.880;2022-10-16T11:47:51;2.00;;;1.90;;
32625;SDS011;19038;50.922;11.880;2022-10-16T11:52:53;3.10;;;1.60;;
32625;SDS011;19038;50.922;11.880;2022-10-16T11:57:51;1.77;;;1.67;;
32625;SDS011;19038;50.922;11.880;2022-10-16T12:02:54;1.80;;;1.70;;
32625;SDS011;19038;50.922;11.880;2022-10-16T12:07:49;2.13;;;1.70;;
32625;SDS011;19038;50.922;11.880;2022-10-16T12:12:46;1.30;;;1.20;;
32625;SDS011;19038;50.922;11.880;2022-10-16T12:17:48;2.33;;;1.63;;
32625;SDS011;19038;50.922;11.880;2022-10-16T12:22:47;2.23;;;1.83;;
32625;SDS011;19038;50.922;11.880;2022-10-16T12:27:53;1.40;;;1.30;;
32625;SDS011;19038;50.922;11.880;2022-10-16T12:32:52;2.43;;;1.50;;
32625;SDS011;19038;50.922;11.880;2022-10-16T12:37:46;2.07;;;1.87;;
32625;SDS011;19038;50.922;11.880;2022-10-16T12:42:46;1.90;;;1.70;;
32625;SDS011;19038;50.922;11.880;2022-10-16T12:47:48;1.60;;;1.50;;
32625;SDS011;19038;50.922;11.880;2022-10-16T12:52:46;1.70;;;1.60;;
32625;SDS011;19038;50.922;11.880;2022-10-16T13:02:50;1.20;;;1.10;;
32625;SDS011;19038;50.922;11.880;2022-10-16T13:07:49;0.93;;;0.93;;
32625;SDS011;19038;50.922;11.880;2022-10-16T13:12:52;1.60;;;1.20;;
32625;SDS011;19038;50.922;11.880;2022-10-16T13:22:51;1.27;;;0.93;;
32625;SDS011;19038;50.922;11.880;2022-10-16T13:27:52;1.43;;;1.07;;
32625;SDS011;19038;50.922;11.880;2022-10-16T13:32:47;1.37;;;1.27;;
32625;SDS011;19038;50.922;11.880;2022-10-16T13:42:47;1.20;;;1.10;;
32625;SDS011;19038;50.922;11.880;2022-10-16T13:47:47;2.87;;;1.33;;
32625;SDS011;19038;50.922;11.880;2022-10-16T13:52:47;1.83;;;1.70;;
32625;SDS011;19038;50.922;11.880;2022-10-16T13:57:46;2.90;;;1.10;;
32625;SDS011;19038;50.922;11.880;2022-10-16T14:02:50;1.20;;;0.90;;
32625;SDS011;19038;50.922;11.880;2022-10-16T14:07:48;1.13;;;1.00;;
32625;SDS011;19038;50.922;11.880;2022-10-16T14:12:54;1.83;;;0.90;;
32625;SDS011;19038;50.922;11.880;2022-10-16T14:17:48;1.47;;;1.37;;
32625;SDS011;19038;50.922;11.880;2022-10-16T14:22:46;1.73;;;1.63;;
32625;SDS011;19038;50.922;11.880;2022-10-16T14:37:50;1.60;;;1.50;;
32625;SDS011;19038;50.922;11.880;2022-10-16T14:42:47;2.13;;;1.93;;
32625;SDS011;19038;50.922;11.880;2022-10-16T14:47:47;1.80;;;1.67;;
32625;SDS011;19038;50.922;11.880;2022-10-16T14:52:47;1.50;;;1.40;;
32625;SDS011;19038;50.922;11.880;2022-10-16T14:57:47;1.40;;;1.10;;
32625;SDS011;19038;50.922;11.880;2022-10-16T15:02:47;2.10;;;1.90;;
32625;SDS011;19038;50.922;11.880;2022-10-16T15:07:47;2.00;;;1.60;;
32625;SDS011;19038;50.922;11.880;2022-10-16T15:12:47;2.27;;;1.47;;
32625;SDS011;19038;50.922;11.880;2022-10-16T15:17:46;14.00;;;12.20;;
32625;SDS011;19038;50.922;11.880;2022-10-16T15:22:47;4.50;;;4.20;;
32625;SDS011;19038;50.922;11.880;2022-10-16T15:27:47;4.27;;;3.83;;
32625;SDS011;19038;50.922;11.880;2022-10-16T15:32:47;14.23;;;13.03;;
32625;SDS011;19038;50.922;11.880;2022-10-16T15:37:47;4.50;;;4.10;;
32625;SDS011;19038;50.922;11.880;2022-10-16T15:42:47;6.43;;;5.53;;
32625;SDS011;19038;50.922;11.880;2022-10-16T15:47:47;5.13;;;4.63;;
32625;SDS011;19038;50.922;11.880;2022-10-16T15:52:47;4.57;;;4.17;;
32625;SDS011;19038;50.922;11.880;2022-10-16T15:57:47;6.43;;;5.57;;
32625;SDS011;19038;50.922;11.880;2022-10-16T16:07:47;8.23;;;7.40;;
32625;SDS011;19038;50.922;11.880;2022-10-16T16:12:47;3.77;;;3.47;;
32625;SDS011;19038;50.922;11.880;2022-10-16T16:17:47;5.67;;;5.27;;
32625;SDS011;19038;50.922;11.880;2022-10-16T16:22:47;5.50;;;5.07;;
32625;SDS011;19038;50.922;11.880;2022-10-16T16:27:47;6.00;;;5.50;;
32625;SDS011;19038;50.922;11.880;2022-10-16T16:32:47;5.00;;;4.50;;
32625;SDS011;19038;50.922;11.880;2022-10-16T16:37:47;6.93;;;6.43;;
32625;SDS011;19038;50.922;11.880;2022-10-16T16:42:47;5.53;;;4.97;;
32625;SDS011;19038;50.922;11.880;2022-10-16T16:47:47;4.67;;;4.27;;
32625;SDS011;19038;50.922;11.880;2022-10-16T16:52:47;3.40;;;3.10;;
32625;SDS011;19038;50.922;11.880;2022-10-16T16:57:48;4.63;;;3.80;;
32625;SDS011;19038;50.922;11.880;2022-10-16T17:02:48;4.80;;;3.73;;
32625;SDS011;19038;50.922;11.880;2022-10-16T17:07:47;3.10;;;2.80;;
32625;SDS011;19038;50.922;11.880;2022-10-16T17:12:47;2.80;;;2.60;;
32625;SDS011;19038;50.922;11.880;2022-10-16T17:17:47;3.93;;;3.47;;
32625;SDS011;19038;50.922;11.880;2022-10-16T17:22:47;5.03;;;3.27;;
32625;SDS011;19038;50.922;11.880;2022-10-16T17:27:47;3.13;;;2.87;;
32625;SDS011;19038;50.922;11.880;2022-10-16T17:32:47;4.10;;;3.30;;
32625;SDS011;19038;50.922;11.880;2022-10-16T17:37:47;7.77;;;7.07;;
32625;SDS011;19038;50.922;11.880;2022-10-16T17:42:47;7.20;;;6.60;;
32625;SDS011;19038;50.922;11.880;2022-10-16T17:47:47;7.57;;;6.63;;
32625;SDS011;19038;50.922;11.880;2022-10-16T17:52:47;7.30;;;6.60;;
32625;SDS011;19038;50.922;11.880;2022-10-16T17:57:47;7.30;;;6.70;;
32625;SDS011;19038;50.922;11.880;2022-10-16T18:02:47;14.20;;;10.73;;
32625;SDS011;19038;50.922;11.880;2022-10-16T18:07:47;11.50;;;10.30;;
32625;SDS011;19038;50.922;11.880;2022-10-16T18:12:47;12.00;;;9.37;;
32625;SDS011;19038;50.922;11.880;2022-10-16T18:17:47;11.70;;;10.47;;
32625;SDS011;19038;50.922;11.880;2022-10-16T18:22:47;11.50;;;10.23;;
32625;SDS011;19038;50.922;11.880;2022-10-16T18:27:47;10.90;;;9.90;;
32625;SDS011;19038;50.922;11.880;2022-10-16T18:32:47;10.27;;;9.37;;
32625;SDS011;19038;50.922;11.880;2022-10-16T18:37:47;10.53;;;9.53;;
32625;SDS011;19038;50.922;11.880;2022-10-16T18:42:47;12.30;;;11.20;;
32625;SDS011;19038;50.922;11.880;2022-10-16T18:47:47;11.63;;;10.60;;
32625;SDS011;19038;50.922;11.880;2022-10-16T18:52:47;12.87;;;11.70;;
32625;SDS011;19038;50.922;11.880;2022-10-16T18:57:47;10.77;;;9.77;;
32625;SDS011;19038;50.922;11.880;2022-10-16T19:02:47;11.20;;;10.10;;
32625;SDS011;19038;50.922;11.880;2022-10-16T19:07:47;11.50;;;10.40;;
32625;SDS011;19038;50.922;11.880;2022-10-16T19:12:47;11.27;;;10.07;;
32625;SDS011;19038;50.922;11.880;2022-10-16T19:17:47;10.80;;;9.70;;
32625;SDS011;19038;50.922;11.880;2022-10-16T19:22:47;7.77;;;6.93;;
32625;SDS011;19038;50.922;11.880;2022-10-16T19:27:48;8.87;;;6.50;;
32625;SDS011;19038;50.922;11.880;2022-10-16T19:32:47;7.77;;;7.13;;
32625;SDS011;19038;50.922;11.880;2022-10-16T19:37:48;5.40;;;4.90;;
32625;SDS011;19038;50.922;11.880;2022-10-16T19:42:47;7.43;;;6.73;;
32625;SDS011;19038;50.922;11.880;2022-10-16T19:47:47;9.00;;;8.10;;
32625;SDS011;19038;50.922;11.880;2022-10-16T19:52:47;13.47;;;10.70;;
32625;SDS011;19038;50.922;11.880;2022-10-16T19:57:47;6.73;;;6.17;;
32625;SDS011;19038;50.922;11.880;2022-10-16T20:02:47;5.20;;;4.70;;
32625;SDS011;19038;50.922;11.880;2022-10-16T20:07:47;4.40;;;4.00;;
32625;SDS011;19038;50.922;11.880;2022-10-16T20:12:47;6.27;;;5.70;;
32625;SDS011;19038;50.922;11.880;2022-10-16T20:17:47;5.30;;;4.60;;
32625;SDS011;19038;50.922;11.880;2022-10-16T20:22:47;4.07;;;3.63;;
32625;SDS011;19038;50.922;11.880;2022-10-16T20:27:47;3.87;;;3.53;;
32625;SDS011;19038;50.922;11.880;2022-10-16T20:32:47;4.20;;;3.80;;
32625;SDS011;19038;50.922;11.880;2022-10-16T20:37:47;4.33;;;3.33;;
32625;SDS011;19038;50.922;11.880;2022-10-16T20:42:47;5.07;;;4.60;;
32625;SDS011;19038;50.922;11.880;2022-10-16T20:47:47;7.97;;;7.27;;
32625;SDS011;19038;50.922;11.880;2022-10-16T20:52:47;7.23;;;6.53;;
32625;SDS011;19038;50.922;11.880;2022-10-16T20:57:47;5.37;;;4.87;;
32625;SDS011;19038;50.922;11.880;2022-10-16T21:02:48;6.40;;;5.80;;
32625;SDS011;19038;50.922;11.880;2022-10-16T21:07:47;5.30;;;4.80;;
32625;SDS011;19038;50.922;11.880;2022-10-16T21:12:47;6.97;;;6.30;;
32625;SDS011;19038;50.922;11.880;2022-10-16T21:17:47;5.67;;;5.20;;
32625;SDS011;19038;50.922;11.880;2022-10-16T21:22:47;7.20;;;6.50;;
32625;SDS011;19038;50.922;11.880;2022-10-16T21:27:47;8.67;;;7.90;;
32625;SDS011;19038;50.922;11.880;2022-10-16T21:32:47;8.40;;;7.70;;
32625;SDS011;19038;50.922;11.880;2022-10-16T21:37:47;9.10;;;8.23;;
32625;SDS011;19038;50.922;11.880;2022-10-16T21:42:47;8.50;;;7.80;;
32625;SDS011;19038;50.922;11.880;2022-10-16T21:47:47;8.40;;;7.50;;
32625;SDS011;19038;50.922;11.880;2022-10-16T21:52:47;8.50;;;7.80;;
32625;SDS011;19038;50.922;11.880;2022-10-16T21:57:47;9.23;;;8.33;;
32625;SDS011;19038;50.922;11.880;2022-10-16T22:02:47;9.47;;;8.63;;
32625;SDS011;19038;50.922;11.880;2022-10-16T22:07:47;9.70;;;8.80;;
32625;SDS011;19038;50.922;11.880;2022-10-16T22:12:47;9.43;;;8.53;;
32625;SDS011;19038;50.922;11.880;2022-10-16T22:17:47;10.23;;;9.20;;
32625;SDS011;19038;50.922;11.880;2022-10-16T22:22:47;9.57;;;8.70;;
32625;SDS011;19038;50.922;11.880;2022-10-16T22:27:47;9.00;;;8.20;;
32625;SDS011;19038;50.922;11.880;2022-10-16T22:32:47;9.43;;;7.87;;
32625;SDS011;19038;50.922;11.880;2022-10-16T22:37:47;11.33;;;10.03;;
32625;SDS011;19038;50.922;11.880;2022-10-16T22:42:47;9.83;;;8.93;;
32625;SDS011;19038;50.922;11.880;2022-10-16T22:47:47;12.03;;;10.87;;
32625;SDS011;19038;50.922;11.880;2022-10-16T22:52:47;11.27;;;10.27;;
32625;SDS011;19038;50.922;11.880;2022-10-16T22:57:47;10.07;;;9.13;;
32625;SDS011;19038;50.922;11.880;2022-10-16T23:02:47;12.70;;;9.83;;
32625;SDS011;19038;50.922;11.880;2022-10-16T23:07:47;10.33;;;9.33;;
32625;SDS011;19038;50.922;11.880;2022-10-16T23:12:47;11.37;;;10.27;;
32625;SDS011;19038;50.922;11.880;2022-10-16T23:17:47;11.57;;;10.40;;
32625;SDS011;19038;50.922;11.880;2022-10-16T23:22:47;12.37;;;11.17;;
32625;SDS011;19038;50.922;11.880;2022-10-16T23:27:47;10.80;;;9.90;;
32625;SDS011;19038;50.922;11.880;2022-10-16T23:32:47;11.50;;;10.40;;
32625;SDS011;19038;50.922;11.880;2022-10-16T23:37:47;10.93;;;9.87;;
32625;SDS011;19038;50.922;11.880;2022-10-16T23:42:47;10.17;;;9.10;;
32625;SDS011;19038;50.922;11.880;2022-10-16T23:47:47;9.37;;;8.40;;
32625;SDS011;19038;50.922;11.880;2022-10-16T23:52:47;9.07;;;8.13;;
32625;SDS011;19038;50.922;11.880;2022-10-16T23:57:47;9.13;;;8.23;;
